Jonah, Texas
Current Conditions -  °F | °C
As of 6:48 AM on Thursday 23 Oct 2014 (Local Time) from KGTU Reporting Station
Overcast Overcast  
Wind Chill: 64°   Ceiling: 12000
Heat Index: 64°   Visibility: 10mi
Dew Point: 59°   Wind: 0mph
Humidity: 83%   Direction: NA
Pressure: 30.12"   Gusts: NA
Location:  30.6233°N, 97.6645°W
Report Text: KGTU 231148Z 00000KT 10SM OVC120 18/15 A3012
Loading
Personal Weather Stations






























Interactive Weather Map
Tropical Storm Tracking
New forecast layout! Learn more

10-Day Weather Forecast

Advertisements
Track Severe Weather on mobile